sensor_id;sensor_type;location;lat;lon;timestamp;pressure;altitude;pressure_sealevel;temperature;humidity
829;BME280;396;52.558;13.188;2023-02-12T00:01:00;102833.25;;;7.48;100.00
829;BME280;396;52.558;13.188;2023-02-12T00:03:26;102835.94;;;7.48;100.00
829;BME280;396;52.558;13.188;2023-02-12T00:05:53;102841.66;;;7.40;100.00
829;BME280;396;52.558;13.188;2023-02-12T00:08:21;102844.50;;;7.45;100.00
829;BME280;396;52.558;13.188;2023-02-12T00:10:47;102849.41;;;7.48;100.00
829;BME280;396;52.558;13.188;2023-02-12T00:13:14;102849.66;;;7.46;100.00
829;BME280;396;52.558;13.188;2023-02-12T00:15:41;102853.84;;;7.42;100.00
829;BME280;396;52.558;13.188;2023-02-12T00:18:08;102846.19;;;7.39;100.00
829;BME280;396;52.558;13.188;2023-02-12T00:20:36;102848.44;;;7.42;100.00
829;BME280;396;52.558;13.188;2023-02-12T00:23:02;102843.50;;;7.39;100.00
829;BME280;396;52.558;13.188;2023-02-12T00:25:30;102852.88;;;7.37;100.00
829;BME280;396;52.558;13.188;2023-02-12T00:27:57;102857.50;;;7.29;100.00
829;BME280;396;52.558;13.188;2023-02-12T00:30:24;102858.50;;;7.35;100.00
829;BME280;396;52.558;13.188;2023-02-12T00:32:50;102857.22;;;7.38;100.00
829;BME280;396;52.558;13.188;2023-02-12T00:35:17;102857.81;;;7.40;100.00
829;BME280;396;52.558;13.188;2023-02-12T00:37:44;102853.31;;;7.33;100.00
829;BME280;396;52.558;13.188;2023-02-12T00:40:11;102864.09;;;7.33;100.00
829;BME280;396;52.558;13.188;2023-02-12T00:42:39;102871.13;;;7.34;100.00
829;BME280;396;52.558;13.188;2023-02-12T00:45:06;102869.88;;;7.37;100.00
829;BME280;396;52.558;13.188;2023-02-12T00:47:33;102870.25;;;7.41;100.00
829;BME280;396;52.558;13.188;2023-02-12T00:49:59;102869.63;;;7.39;100.00
829;BME280;396;52.558;13.188;2023-02-12T00:52:26;102877.53;;;7.40;100.00
829;BME280;396;52.558;13.188;2023-02-12T00:54:53;102875.66;;;7.41;100.00
829;BME280;396;52.558;13.188;2023-02-12T00:57:19;102885.38;;;7.42;100.00
829;BME280;396;52.558;13.188;2023-02-12T00:59:47;102881.63;;;7.43;100.00
829;BME280;396;52.558;13.188;2023-02-12T01:02:14;102882.44;;;7.43;100.00
829;BME280;396;52.558;13.188;2023-02-12T01:04:40;102882.44;;;7.43;100.00
829;BME280;396;52.558;13.188;2023-02-12T01:07:08;102888.06;;;7.42;100.00
829;BME280;396;52.558;13.188;2023-02-12T01:09:35;102881.63;;;7.43;100.00
829;BME280;396;52.558;13.188;2023-02-12T01:12:01;102878.94;;;7.43;100.00
829;BME280;396;52.558;13.188;2023-02-12T01:14:28;102878.94;;;7.43;100.00
829;BME280;396;52.558;13.188;2023-02-12T01:16:56;102886.44;;;7.41;100.00
829;BME280;396;52.558;13.188;2023-02-12T01:19:22;102888.91;;;7.42;100.00
829;BME280;396;52.558;13.188;2023-02-12T01:21:49;102887.31;;;7.34;100.00
829;BME280;396;52.558;13.188;2023-02-12T01:24:16;102894.94;;;7.38;100.00
829;BME280;396;52.558;13.188;2023-02-12T01:26:42;102892.88;;;7.40;100.00
829;BME280;396;52.558;13.188;2023-02-12T01:29:09;102898.63;;;7.43;100.00
829;BME280;396;52.558;13.188;2023-02-12T01:31:37;102897.22;;;7.41;100.00
829;BME280;396;52.558;13.188;2023-02-12T01:34:06;102895.94;;;7.43;100.00
829;BME280;396;52.558;13.188;2023-02-12T01:36:34;102905.88;;;7.43;100.00
829;BME280;396;52.558;13.188;2023-02-12T01:39:01;102903.00;;;7.44;100.00
829;BME280;396;52.558;13.188;2023-02-12T01:41:29;102902.59;;;7.41;100.00
829;BME280;396;52.558;13.188;2023-02-12T01:44:14;102908.59;;;7.43;100.00
829;BME280;396;52.558;13.188;2023-02-12T01:46:42;102911.09;;;7.44;100.00
829;BME280;396;52.558;13.188;2023-02-12T01:49:14;102912.97;;;7.44;100.00
829;BME280;396;52.558;13.188;2023-02-12T01:51:43;102910.06;;;7.39;100.00
829;BME280;396;52.558;13.188;2023-02-12T01:54:13;102913.81;;;7.38;100.00
829;BME280;396;52.558;13.188;2023-02-12T01:56:42;102913.81;;;7.38;100.00
829;BME280;396;52.558;13.188;2023-02-12T01:59:09;102917.97;;;7.40;100.00
829;BME280;396;52.558;13.188;2023-02-12T02:01:37;102921.47;;;7.41;100.00
829;BME280;396;52.558;13.188;2023-02-12T02:04:07;102919.38;;;7.43;100.00
829;BME280;396;52.558;13.188;2023-02-12T02:06:41;102932.84;;;7.43;100.00
829;BME280;396;52.558;13.188;2023-02-12T02:09:10;102925.81;;;7.42;100.00
829;BME280;396;52.558;13.188;2023-02-12T02:11:37;102931.22;;;7.42;100.00
829;BME280;396;52.558;13.188;2023-02-12T02:14:21;102924.75;;;7.43;100.00
829;BME280;396;52.558;13.188;2023-02-12T02:17:15;102932.47;;;7.39;100.00
829;BME280;396;52.558;13.188;2023-02-12T02:20:07;102931.28;;;7.35;100.00
829;BME280;396;52.558;13.188;2023-02-12T02:22:41;102925.91;;;7.35;100.00
829;BME280;396;52.558;13.188;2023-02-12T02:28:17;102913.50;;;7.27;100.00
829;BME280;396;52.558;13.188;2023-02-12T02:30:52;102921.44;;;7.22;100.00
829;BME280;396;52.558;13.188;2023-02-12T02:33:26;102926.22;;;7.20;100.00
829;BME280;396;52.558;13.188;2023-02-12T02:36:09;102925.00;;;7.16;100.00
829;BME280;396;52.558;13.188;2023-02-12T02:38:40;102924.56;;;7.19;100.00
829;BME280;396;52.558;13.188;2023-02-12T02:41:14;102933.47;;;7.20;100.00
829;BME280;396;52.558;13.188;2023-02-12T02:43:44;102927.50;;;7.18;100.00
829;BME280;396;52.558;13.188;2023-02-12T02:46:19;102931.59;;;7.20;100.00
829;BME280;396;52.558;13.188;2023-02-12T02:48:49;102928.91;;;7.20;100.00
829;BME280;396;52.558;13.188;2023-02-12T02:51:20;102926.22;;;7.20;100.00
829;BME280;396;52.558;13.188;2023-02-12T02:53:53;102935.34;;;7.19;100.00
829;BME280;396;52.558;13.188;2023-02-12T02:56:23;102928.09;;;7.20;100.00
829;BME280;396;52.558;13.188;2023-02-12T02:58:54;102934.78;;;7.11;100.00
829;BME280;396;52.558;13.188;2023-02-12T03:01:27;102931.28;;;7.10;100.00
829;BME280;396;52.558;13.188;2023-02-12T03:04:00;102947.69;;;7.08;100.00
829;BME280;396;52.558;13.188;2023-02-12T03:06:33;102942.28;;;7.08;100.00
829;BME280;396;52.558;13.188;2023-02-12T03:09:08;102940.19;;;7.11;100.00
829;BME280;396;52.558;13.188;2023-02-12T03:11:38;102946.81;;;7.08;100.00
829;BME280;396;52.558;13.188;2023-02-12T03:14:11;102951.19;;;7.09;100.00
829;BME280;396;52.558;13.188;2023-02-12T03:16:48;102947.31;;;6.98;100.00
829;BME280;396;52.558;13.188;2023-02-12T03:19:20;102955.78;;;7.02;100.00
829;BME280;396;52.558;13.188;2023-02-12T03:21:51;102949.97;;;7.05;100.00
829;BME280;396;52.558;13.188;2023-02-12T03:24:23;102954.31;;;7.06;100.00
829;BME280;396;52.558;13.188;2023-02-12T03:26:57;102955.13;;;7.06;100.00
829;BME280;396;52.558;13.188;2023-02-12T03:29:25;102961.16;;;7.08;100.00
829;BME280;396;52.558;13.188;2023-02-12T03:32:03;102963.00;;;7.08;100.00
829;BME280;396;52.558;13.188;2023-02-12T03:34:42;102967.56;;;7.07;100.00
829;BME280;396;52.558;13.188;2023-02-12T03:37:13;102962.41;;;7.06;100.00
829;BME280;396;52.558;13.188;2023-02-12T03:39:51;102955.19;;;7.00;100.00
829;BME280;396;52.558;13.188;2023-02-12T03:42:26;102960.19;;;6.96;100.00
829;BME280;396;52.558;13.188;2023-02-12T03:45:00;102961.19;;;7.02;100.00
829;BME280;396;52.558;13.188;2023-02-12T03:47:38;102961.19;;;7.02;100.00
829;BME280;396;52.558;13.188;2023-02-12T03:50:10;102968.03;;;7.04;100.00
829;BME280;396;52.558;13.188;2023-02-12T03:52:40;102970.47;;;7.06;100.00
829;BME280;396;52.558;13.188;2023-02-12T03:55:08;102973.19;;;7.06;100.00
829;BME280;396;52.558;13.188;2023-02-12T03:57:38;102978.16;;;7.02;100.00
829;BME280;396;52.558;13.188;2023-02-12T04:00:09;102973.41;;;7.04;100.00
829;BME280;396;52.558;13.188;2023-02-12T04:02:38;102990.41;;;7.05;100.00
829;BME280;396;52.558;13.188;2023-02-12T04:05:06;102994.75;;;7.06;100.00
829;BME280;396;52.558;13.188;2023-02-12T04:07:34;102995.16;;;7.03;100.00
829;BME280;396;52.558;13.188;2023-02-12T04:10:02;102993.53;;;7.02;100.00
829;BME280;396;52.558;13.188;2023-02-12T04:12:34;103003.69;;;7.00;100.00
829;BME280;396;52.558;13.188;2023-02-12T04:15:23;103000.81;;;6.95;100.00
829;BME280;396;52.558;13.188;2023-02-12T04:18:00;102997.94;;;6.90;100.00
829;BME280;396;52.558;13.188;2023-02-12T04:20:35;103002.72;;;6.88;100.00
829;BME280;396;52.558;13.188;2023-02-12T04:23:11;103003.78;;;6.87;100.00
829;BME280;396;52.558;13.188;2023-02-12T04:25:50;103007.94;;;6.82;100.00
829;BME280;396;52.558;13.188;2023-02-12T04:28:26;103004.63;;;6.80;100.00
829;BME280;396;52.558;13.188;2023-02-12T04:30:56;103007.16;;;6.75;100.00
829;BME280;396;52.558;13.188;2023-02-12T04:33:31;103005.91;;;6.71;100.00
829;BME280;396;52.558;13.188;2023-02-12T04:36:02;103001.34;;;6.72;100.00
829;BME280;396;52.558;13.188;2023-02-12T04:38:34;103001.59;;;6.70;100.00
829;BME280;396;52.558;13.188;2023-02-12T04:41:04;103001.59;;;6.70;100.00
829;BME280;396;52.558;13.188;2023-02-12T04:43:33;103003.44;;;6.70;100.00
829;BME280;396;52.558;13.188;2023-02-12T04:46:00;103000.34;;;6.66;100.00
829;BME280;396;52.558;13.188;2023-02-12T04:48:28;103005.75;;;6.66;100.00
829;BME280;396;52.558;13.188;2023-02-12T04:50:55;103003.88;;;6.67;100.00
829;BME280;396;52.558;13.188;2023-02-12T04:53:22;102998.09;;;6.63;100.00
829;BME280;396;52.558;13.188;2023-02-12T04:55:48;102998.97;;;6.57;100.00
829;BME280;396;52.558;13.188;2023-02-12T04:58:15;102998.78;;;6.52;100.00
829;BME280;396;52.558;13.188;2023-02-12T05:00:42;103000.66;;;6.51;100.00
829;BME280;396;52.558;13.188;2023-02-12T05:03:08;102997.72;;;6.53;100.00
829;BME280;396;52.558;13.188;2023-02-12T05:05:36;103006.03;;;6.51;100.00
829;BME280;396;52.558;13.188;2023-02-12T05:08:03;103000.84;;;6.50;100.00
829;BME280;396;52.558;13.188;2023-02-12T05:10:30;103007.50;;;6.47;100.00
829;BME280;396;52.558;13.188;2023-02-12T05:12:56;103007.69;;;6.46;100.00
829;BME280;396;52.558;13.188;2023-02-12T05:15:23;103009.59;;;6.39;100.00
829;BME280;396;52.558;13.188;2023-02-12T05:17:49;103002.56;;;6.38;100.00
829;BME280;396;52.558;13.188;2023-02-12T05:20:16;103006.72;;;6.34;100.00
829;BME280;396;52.558;13.188;2023-02-12T05:22:44;103012.47;;;6.37;100.00
829;BME280;396;52.558;13.188;2023-02-12T05:25:11;103015.59;;;6.41;100.00
829;BME280;396;52.558;13.188;2023-02-12T05:27:37;103013.53;;;6.43;100.00
829;BME280;396;52.558;13.188;2023-02-12T05:30:05;103011.84;;;6.42;100.00
829;BME280;396;52.558;13.188;2023-02-12T05:32:33;103010.66;;;6.31;100.00
829;BME280;396;52.558;13.188;2023-02-12T05:35:00;103018.09;;;6.36;100.00
829;BME280;396;52.558;13.188;2023-02-12T05:37:26;103012.72;;;6.36;100.00
829;BME280;396;52.558;13.188;2023-02-12T05:39:57;103027.22;;;6.35;100.00
829;BME280;396;52.558;13.188;2023-02-12T05:42:23;103018.50;;;6.32;100.00
829;BME280;396;52.558;13.188;2023-02-12T05:44:50;103017.69;;;6.32;100.00
829;BME280;396;52.558;13.188;2023-02-12T05:47:16;103026.63;;;6.26;100.00
829;BME280;396;52.558;13.188;2023-02-12T05:49:43;103028.44;;;6.32;100.00
829;BME280;396;52.558;13.188;2023-02-12T05:52:10;103028.25;;;6.27;100.00
829;BME280;396;52.558;13.188;2023-02-12T05:54:36;103029.94;;;6.21;100.00
829;BME280;396;52.558;13.188;2023-02-12T05:57:05;103037.38;;;6.19;100.00
829;BME280;396;52.558;13.188;2023-02-12T05:59:32;103030.53;;;6.23;100.00
829;BME280;396;52.558;13.188;2023-02-12T06:01:59;103033.69;;;6.20;100.00
829;BME280;396;52.558;13.188;2023-02-12T06:04:28;103041.75;;;6.20;100.00
829;BME280;396;52.558;13.188;2023-02-12T06:06:55;103041.13;;;6.18;100.00
829;BME280;396;52.558;13.188;2023-02-12T06:09:22;103040.72;;;6.21;100.00
829;BME280;396;52.558;13.188;2023-02-12T06:11:49;103039.47;;;6.17;100.00
829;BME280;396;52.558;13.188;2023-02-12T06:14:18;103044.44;;;6.20;100.00
829;BME280;396;52.558;13.188;2023-02-12T06:16:46;103047.13;;;6.20;100.00
829;BME280;396;52.558;13.188;2023-02-12T06:19:13;103052.50;;;6.20;100.00
829;BME280;396;52.558;13.188;2023-02-12T06:21:40;103051.47;;;6.21;100.00
829;BME280;396;52.558;13.188;2023-02-12T06:24:07;103051.66;;;6.26;100.00
829;BME280;396;52.558;13.188;2023-02-12T06:26:33;103059.31;;;6.29;100.00
829;BME280;396;52.558;13.188;2023-02-12T06:29:00;103069.22;;;6.36;100.00
829;BME280;396;52.558;13.188;2023-02-12T06:31:30;103068.38;;;6.42;100.00
829;BME280;396;52.558;13.188;2023-02-12T06:33:58;103073.97;;;6.47;100.00
829;BME280;396;52.558;13.188;2023-02-12T06:36:24;103072.28;;;6.52;100.00
829;BME280;396;52.558;13.188;2023-02-12T06:38:51;103081.78;;;6.55;100.00
829;BME280;396;52.558;13.188;2023-02-12T06:41:18;103075.19;;;6.57;100.00
829;BME280;396;52.558;13.188;2023-02-12T06:43:45;103080.97;;;6.61;100.00
829;BME280;396;52.558;13.188;2023-02-12T06:46:13;103083.44;;;6.63;100.00
829;BME280;396;52.558;13.188;2023-02-12T06:48:41;103087.59;;;6.65;100.00
829;BME280;396;52.558;13.188;2023-02-12T06:51:10;103088.81;;;6.63;100.00
829;BME280;396;52.558;13.188;2023-02-12T06:53:37;103102.50;;;6.61;100.00
829;BME280;396;52.558;13.188;2023-02-12T06:56:06;103101.69;;;6.61;100.00
829;BME280;396;52.558;13.188;2023-02-12T06:58:36;103110.19;;;6.64;100.00
829;BME280;396;52.558;13.188;2023-02-12T07:01:09;103107.06;;;6.61;100.00
829;BME280;396;52.558;13.188;2023-02-12T07:03:38;103110.78;;;6.60;100.00
829;BME280;396;52.558;13.188;2023-02-12T07:06:06;103111.63;;;6.60;100.00
829;BME280;396;52.558;13.188;2023-02-12T07:08:34;103115.34;;;6.59;100.00
829;BME280;396;52.558;13.188;2023-02-12T07:11:01;103105.41;;;6.60;100.00
829;BME280;396;52.558;13.188;2023-02-12T07:13:27;103105.00;;;6.56;100.00
829;BME280;396;52.558;13.188;2023-02-12T07:15:54;103099.19;;;6.59;100.00
829;BME280;396;52.558;13.188;2023-02-12T07:18:21;103107.25;;;6.66;100.00
829;BME280;396;52.558;13.188;2023-02-12T07:20:47;103110.13;;;6.71;100.00
829;BME280;396;52.558;13.188;2023-02-12T07:23:15;103107.44;;;6.77;100.00
829;BME280;396;52.558;13.188;2023-02-12T07:25:42;103108.22;;;6.85;100.00
829;BME280;396;52.558;13.188;2023-02-12T07:28:08;103110.69;;;6.86;100.00
829;BME280;396;52.558;13.188;2023-02-12T07:30:36;103117.94;;;6.92;100.00
829;BME280;396;52.558;13.188;2023-02-12T07:33:03;103114.59;;;6.97;100.00
829;BME280;396;52.558;13.188;2023-02-12T07:35:29;103117.25;;;7.03;100.00
829;BME280;396;52.558;13.188;2023-02-12T07:37:57;103120.97;;;7.09;100.00
829;BME280;396;52.558;13.188;2023-02-12T07:40:25;103118.88;;;7.11;100.00
829;BME280;396;52.558;13.188;2023-02-12T07:42:53;103117.81;;;7.12;100.00
829;BME280;396;52.558;13.188;2023-02-12T07:45:20;103123.63;;;7.16;100.00
829;BME280;396;52.558;13.188;2023-02-12T07:47:47;103112.66;;;7.17;100.00
829;BME280;396;52.558;13.188;2023-02-12T07:50:14;103122.78;;;7.22;100.00
829;BME280;396;52.558;13.188;2023-02-12T07:52:40;103124.19;;;7.24;100.00
829;BME280;396;52.558;13.188;2023-02-12T07:55:07;103135.38;;;7.28;100.00
829;BME280;396;52.558;13.188;2023-02-12T07:57:35;103127.06;;;7.29;100.00
829;BME280;396;52.558;13.188;2023-02-12T08:00:03;103134.13;;;7.30;100.00
829;BME280;396;52.558;13.188;2023-02-12T08:02:30;103138.47;;;7.31;100.00
829;BME280;396;52.558;13.188;2023-02-12T08:04:56;103140.34;;;7.31;100.00
829;BME280;396;52.558;13.188;2023-02-12T08:07:24;103146.56;;;7.31;100.00
829;BME280;396;52.558;13.188;2023-02-12T08:09:50;103150.47;;;7.36;100.00
829;BME280;396;52.558;13.188;2023-02-12T08:12:18;103151.06;;;7.44;100.00
829;BME280;396;52.558;13.188;2023-02-12T08:14:46;103150.59;;;7.47;100.00
829;BME280;396;52.558;13.188;2023-02-12T08:17:12;103154.53;;;7.51;100.00
829;BME280;396;52.558;13.188;2023-02-12T08:19:39;103159.25;;;7.56;100.00
829;BME280;396;52.558;13.188;2023-02-12T08:22:05;103156.31;;;7.64;100.00
829;BME280;396;52.558;13.188;2023-02-12T08:24:32;103164.81;;;7.68;100.00
829;BME280;396;52.558;13.188;2023-02-12T08:26:59;103172.66;;;7.69;100.00
829;BME280;396;52.558;13.188;2023-02-12T08:29:27;103169.13;;;7.75;100.00
829;BME280;396;52.558;13.188;2023-02-12T08:31:56;103164.75;;;7.74;100.00
829;BME280;396;52.558;13.188;2023-02-12T08:34:24;103170.78;;;7.76;100.00
829;BME280;396;52.558;13.188;2023-02-12T08:36:52;103180.09;;;7.80;100.00
829;BME280;396;52.558;13.188;2023-02-12T08:39:20;103174.25;;;7.83;100.00
829;BME280;396;52.558;13.188;2023-02-12T08:41:47;103184.44;;;7.81;100.00
829;BME280;396;52.558;13.188;2023-02-12T08:44:15;103181.31;;;7.84;100.00
829;BME280;396;52.558;13.188;2023-02-12T08:46:43;103185.81;;;7.91;100.00
829;BME280;396;52.558;13.188;2023-02-12T08:49:14;103196.00;;;7.89;100.00
829;BME280;396;52.558;13.188;2023-02-12T08:51:43;103194.06;;;7.96;100.00
829;BME280;396;52.558;13.188;2023-02-12T08:54:11;103194.03;;;8.02;100.00
829;BME280;396;52.558;13.188;2023-02-12T08:56:38;103201.47;;;8.07;100.00
829;BME280;396;52.558;13.188;2023-02-12T08:59:06;103201.00;;;8.10;100.00
829;BME280;396;52.558;13.188;2023-02-12T09:01:34;103199.53;;;8.14;100.00
829;BME280;396;52.558;13.188;2023-02-12T09:04:03;103196.41;;;8.17;100.00
829;BME280;396;52.558;13.188;2023-02-12T09:06:33;103197.38;;;8.23;100.00
829;BME280;396;52.558;13.188;2023-02-12T09:09:00;103210.69;;;8.24;100.00
829;BME280;396;52.558;13.188;2023-02-12T09:11:28;103209.78;;;8.30;100.00
829;BME280;396;52.558;13.188;2023-02-12T09:13:56;103211.81;;;8.42;100.00
829;BME280;396;52.558;13.188;2023-02-12T09:16:24;103209.88;;;8.49;100.00
829;BME280;396;52.558;13.188;2023-02-12T09:18:51;103210.03;;;8.54;100.00
829;BME280;396;52.558;13.188;2023-02-12T09:21:18;103213.34;;;8.56;100.00
829;BME280;396;52.558;13.188;2023-02-12T09:23:47;103220.47;;;8.50;100.00
829;BME280;396;52.558;13.188;2023-02-12T09:26:17;103223.84;;;8.46;100.00
829;BME280;396;52.558;13.188;2023-02-12T09:28:45;103232.91;;;8.51;100.00
829;BME280;396;52.558;13.188;2023-02-12T09:31:14;103225.78;;;8.57;100.00
829;BME280;396;52.558;13.188;2023-02-12T09:33:42;103226.97;;;8.68;100.00
829;BME280;396;52.558;13.188;2023-02-12T09:36:11;103227.31;;;8.71;100.00
829;BME280;396;52.558;13.188;2023-02-12T09:38:39;103229.81;;;8.73;100.00
829;BME280;396;52.558;13.188;2023-02-12T09:41:26;103230.47;;;8.68;100.00
829;BME280;396;52.558;13.188;2023-02-12T09:44:04;103245.47;;;8.64;100.00
829;BME280;396;52.558;13.188;2023-02-12T09:46:35;103241.78;;;8.58;100.00
829;BME280;396;52.558;13.188;2023-02-12T09:49:08;103247.19;;;8.58;100.00
829;BME280;396;52.558;13.188;2023-02-12T09:51:37;103246.28;;;8.46;100.00
829;BME280;396;52.558;13.188;2023-02-12T09:54:06;103248.75;;;8.48;100.00
829;BME280;396;52.558;13.188;2023-02-12T09:56:41;103249.31;;;8.50;100.00
829;BME280;396;52.558;13.188;2023-02-12T09:59:08;103254.72;;;8.50;100.00
829;BME280;396;52.558;13.188;2023-02-12T10:01:35;103254.13;;;8.48;100.00
829;BME280;396;52.558;13.188;2023-02-12T10:04:03;103256.44;;;8.44;100.00
829;BME280;396;52.558;13.188;2023-02-12T10:06:35;103252.34;;;8.42;100.00
829;BME280;396;52.558;13.188;2023-02-12T10:09:23;103249.25;;;8.38;100.00
829;BME280;396;52.558;13.188;2023-02-12T10:11:59;103245.53;;;8.32;100.00
829;BME280;396;52.558;13.188;2023-02-12T10:14:47;103256.69;;;8.36;100.00
829;BME280;396;52.558;13.188;2023-02-12T10:17:24;103254.22;;;8.41;100.00
829;BME280;396;52.558;13.188;2023-02-12T10:20:11;103247.69;;;8.49;100.00
829;BME280;396;52.558;13.188;2023-02-12T10:22:46;103244.53;;;8.52;100.00
829;BME280;396;52.558;13.188;2023-02-12T10:25:20;103246.97;;;8.60;100.00
829;BME280;396;52.558;13.188;2023-02-12T10:27:53;103243.22;;;8.61;100.00
829;BME280;396;52.558;13.188;2023-02-12T10:30:24;103242.25;;;8.55;100.00
829;BME280;396;52.558;13.188;2023-02-12T10:32:57;103243.06;;;8.56;100.00
829;BME280;396;52.558;13.188;2023-02-12T10:35:25;103247.09;;;8.47;100.00
829;BME280;396;52.558;13.188;2023-02-12T10:37:56;103248.81;;;8.34;100.00
829;BME280;396;52.558;13.188;2023-02-12T10:40:25;103248.88;;;8.28;100.00
829;BME280;396;52.558;13.188;2023-02-12T10:42:56;103243.69;;;8.26;100.00
829;BME280;396;52.558;13.188;2023-02-12T10:45:29;103248.66;;;8.29;100.00
829;BME280;396;52.558;13.188;2023-02-12T10:48:06;103251.75;;;8.33;100.00
829;BME280;396;52.558;13.188;2023-02-12T10:50:44;103248.03;;;8.27;100.00
829;BME280;396;52.558;13.188;2023-02-12T10:53:17;103254.91;;;8.23;100.00
829;BME280;396;52.558;13.188;2023-02-12T10:55:45;103251.84;;;8.20;100.00
829;BME280;396;52.558;13.188;2023-02-12T10:58:21;103255.09;;;8.28;100.00
829;BME280;396;52.558;13.188;2023-02-12T11:00:56;103255.47;;;8.32;100.00
829;BME280;396;52.558;13.188;2023-02-12T11:03:27;103250.13;;;8.25;100.00
829;BME280;396;52.558;13.188;2023-02-12T11:05:54;103246.53;;;8.31;100.00
829;BME280;396;52.558;13.188;2023-02-12T11:08:31;103251.13;;;8.31;100.00
829;BME280;396;52.558;13.188;2023-02-12T11:11:07;103250.94;;;8.32;100.00
829;BME280;396;52.558;13.188;2023-02-12T11:13:39;103252.78;;;8.32;100.00
829;BME280;396;52.558;13.188;2023-02-12T11:16:06;103248.25;;;8.26;100.00
829;BME280;396;52.558;13.188;2023-02-12T11:18:34;103244.97;;;8.24;100.00
829;BME280;396;52.558;13.188;2023-02-12T11:21:03;103253.81;;;8.31;100.00
829;BME280;396;52.558;13.188;2023-02-12T11:23:32;103240.72;;;8.34;100.00
829;BME280;396;52.558;13.188;2023-02-12T11:26:00;103245.25;;;8.41;100.00
829;BME280;396;52.558;13.188;2023-02-12T11:28:28;103236.69;;;8.50;100.00
829;BME280;396;52.558;13.188;2023-02-12T11:30:58;103237.50;;;8.51;100.00
829;BME280;396;52.558;13.188;2023-02-12T11:33:28;103245.81;;;8.49;100.00
829;BME280;396;52.558;13.188;2023-02-12T11:35:58;103248.34;;;8.44;100.00
829;BME280;396;52.558;13.188;2023-02-12T11:38:32;103246.09;;;8.41;100.00
829;BME280;396;52.558;13.188;2023-02-12T11:41:04;103237.78;;;8.43;100.00
829;BME280;396;52.558;13.188;2023-02-12T11:43:34;103242.19;;;8.37;100.00
829;BME280;396;52.558;13.188;2023-02-12T11:46:06;103238.72;;;8.23;100.00
829;BME280;396;52.558;13.188;2023-02-12T11:48:36;103238.09;;;8.28;100.00
829;BME280;396;52.558;13.188;2023-02-12T11:51:05;103234.72;;;8.32;100.00
829;BME280;396;52.558;13.188;2023-02-12T11:53:36;103232.22;;;8.38;100.00
829;BME280;396;52.558;13.188;2023-02-12T11:56:07;103232.38;;;8.36;100.00
829;BME280;396;52.558;13.188;2023-02-12T11:58:34;103235.09;;;8.36;100.00
829;BME280;396;52.558;13.188;2023-02-12T12:01:10;103230.97;;;8.33;100.00
829;BME280;396;52.558;13.188;2023-02-12T12:03:44;103223.47;;;8.35;100.00
829;BME280;396;52.558;13.188;2023-02-12T12:06:21;103216.84;;;8.38;100.00
829;BME280;396;52.558;13.188;2023-02-12T12:08:54;103219.31;;;8.40;100.00
829;BME280;396;52.558;13.188;2023-02-12T12:11:26;103205.53;;;8.48;100.00
829;BME280;396;52.558;13.188;2023-02-12T12:14:00;103221.59;;;8.61;100.00
829;BME280;396;52.558;13.188;2023-02-12T12:16:35;103225.00;;;8.75;100.00
829;BME280;396;52.558;13.188;2023-02-12T12:19:24;103230.34;;;8.81;100.00
829;BME280;396;52.558;13.188;2023-02-12T12:22:19;103217.66;;;8.82;100.00
829;BME280;396;52.558;13.188;2023-02-12T12:24:51;103221.03;;;9.14;100.00
829;BME280;396;52.558;13.188;2023-02-12T12:27:26;103208.84;;;9.23;100.00
829;BME280;396;52.558;13.188;2023-02-12T12:30:21;103214.09;;;9.37;100.00
829;BME280;396;52.558;13.188;2023-02-12T12:32:53;103214.44;;;9.58;100.00
829;BME280;396;52.558;13.188;2023-02-12T12:35:28;103207.69;;;9.79;100.00
829;BME280;396;52.558;13.188;2023-02-12T12:38:04;103205.28;;;10.13;99.40
829;BME280;396;52.558;13.188;2023-02-12T12:40:43;103202.75;;;10.42;96.38
829;BME280;396;52.558;13.188;2023-02-12T12:43:23;103195.78;;;10.57;94.54
829;BME280;396;52.558;13.188;2023-02-12T12:46:08;103192.38;;;10.74;91.69
829;BME280;396;52.558;13.188;2023-02-12T12:48:47;103194.47;;;10.83;91.01
829;BME280;396;52.558;13.188;2023-02-12T12:51:29;103190.94;;;10.95;90.46
829;BME280;396;52.558;13.188;2023-02-12T12:54:10;103198.09;;;11.01;89.14
829;BME280;396;52.558;13.188;2023-02-12T12:56:54;103194.31;;;11.02;87.85
829;BME280;396;52.558;13.188;2023-02-12T12:59:47;103198.72;;;10.91;88.53
829;BME280;396;52.558;13.188;2023-02-12T13:05:44;103198.16;;;10.66;90.03
829;BME280;396;52.558;13.188;2023-02-12T13:08:27;103195.09;;;10.62;89.37
829;BME280;396;52.558;13.188;2023-02-12T13:11:01;103194.84;;;10.52;89.20
829;BME280;396;52.558;13.188;2023-02-12T13:13:34;103192.00;;;10.23;90.10
829;BME280;396;52.558;13.188;2023-02-12T13:16:09;103190.38;;;10.34;92.32
829;BME280;396;52.558;13.188;2023-02-12T13:18:46;103181.41;;;10.57;90.85
829;BME280;396;52.558;13.188;2023-02-12T13:21:23;103184.84;;;10.52;88.90
829;BME280;396;52.558;13.188;2023-02-12T13:23:55;103187.56;;;10.41;89.60
829;BME280;396;52.558;13.188;2023-02-12T13:26:26;103184.94;;;10.69;89.84
829;BME280;396;52.558;13.188;2023-02-12T13:29:00;103178.34;;;11.29;90.94
829;BME280;396;52.558;13.188;2023-02-12T13:31:30;103184.00;;;12.18;86.28
829;BME280;396;52.558;13.188;2023-02-12T13:34:01;103182.09;;;12.74;82.50
829;BME280;396;52.558;13.188;2023-02-12T13:36:31;103182.63;;;13.15;78.01
829;BME280;396;52.558;13.188;2023-02-12T13:39:02;103184.59;;;13.20;76.14
829;BME280;396;52.558;13.188;2023-02-12T13:41:30;103180.78;;;12.99;76.64
829;BME280;396;52.558;13.188;2023-02-12T13:44:05;103176.44;;;12.98;77.11
829;BME280;396;52.558;13.188;2023-02-12T13:46:43;103176.81;;;12.84;76.40